Time;durP1;ratioP1;P1;durP2;ratioP2;P2;SDS_P1;SDS_P2;PMS_P1;PMS_P2;Temp;Humidity;BMP_temperature;BMP_pressure;BME280_temperature;BME280_humidity;BME280_pressure;Samples;Min_cycle;Max_cycle;Signal;HPM_P1;HPM_P2
2020/12/07 00:01:18;;;;;;;75.47;36.20;;;;;;;4.50;100.00;99234.13;4975710;28;20444;-72
2020/12/07 00:03:44;;;;;;;80.15;36.72;;;;;;;4.37;100.00;99239.34;4976422;28;20038;-72
2020/12/07 00:06:09;;;;;;;83.30;36.78;;;;;;;4.32;100.00;99252.03;4976643;28;20030;-73
2020/12/07 00:08:36;;;;;;;86.45;37.97;;;;;;;4.26;100.00;99254.25;4976222;28;20676;-73
2020/12/07 00:11:01;;;;;;;85.13;36.50;;;;;;;4.28;100.00;99260.31;5004623;28;20114;-74
2020/12/07 00:13:27;;;;;;;77.30;37.05;;;;;;;4.45;100.00;99254.78;4974414;28;20109;-73
2020/12/07 00:15:52;;;;;;;83.75;36.13;;;;;;;4.39;100.00;99245.41;4976612;28;20464;-73
2020/12/07 00:18:18;;;;;;;81.35;36.10;;;;;;;4.43;100.00;99238.97;4992964;28;20092;-73
2020/12/07 00:20:43;;;;;;;75.60;35.35;;;;;;;4.31;100.00;99233.56;4974454;28;20035;-73
2020/12/07 00:23:10;;;;;;;73.20;35.20;;;;;;;4.36;100.00;99234.13;4993031;28;20031;-73
2020/12/07 00:25:36;;;;;;;81.20;35.30;;;;;;;4.38;100.00;99229.59;4975212;28;20081;-73
2020/12/07 00:28:01;;;;;;;75.93;37.13;;;;;;;4.40;100.00;99222.34;4973025;28;20445;-73
2020/12/07 00:30:27;;;;;;;74.63;35.05;;;;;;;4.37;100.00;99226.06;4980198;28;20077;-73
2020/12/07 00:32:52;;;;;;;72.55;33.67;;;;;;;4.34;100.00;99218.28;4972624;28;20121;-73
2020/12/07 00:35:17;;;;;;;73.45;35.28;;;;;;;4.35;100.00;99224.44;4970730;28;20041;-73
2020/12/07 00:37:43;;;;;;;69.78;34.63;;;;;;;4.42;100.00;99228.44;4978868;28;20031;-73
2020/12/07 00:40:08;;;;;;;67.50;34.13;;;;;;;4.36;100.00;99228.81;4995538;23;20070;-72
2020/12/07 00:42:34;;;;;;;67.43;32.60;;;;;;;4.37;100.00;99243.81;4972769;28;20038;-72
2020/12/07 00:44:59;;;;;;;71.55;33.00;;;;;;;4.34;100.00;99244.84;4953748;28;20030;-71
2020/12/07 00:47:24;;;;;;;65.40;33.42;;;;;;;4.24;100.00;99248.16;4969768;28;20515;-72
2020/12/07 00:49:50;;;;;;;67.85;33.65;;;;;;;4.37;100.00;99241.16;4970393;28;20035;-72
2020/12/07 00:52:16;;;;;;;71.05;35.28;;;;;;;4.34;100.00;99238.66;4970538;28;20503;-72
2020/12/07 00:54:42;;;;;;;66.63;32.80;;;;;;;4.34;100.00;99238.66;4959748;28;20035;-71
2020/12/07 00:57:07;;;;;;;67.35;32.80;;;;;;;4.42;100.00;99237.25;4952236;28;20792;-72
2020/12/07 00:59:37;;;;;;;63.70;33.30;;;;;;;4.29;100.00;99231.00;4971426;28;20535;-72
2020/12/07 01:02:03;;;;;;;68.75;34.38;;;;;;;4.33;100.00;99226.34;4970272;28;20484;-71
2020/12/07 01:04:29;;;;;;;68.70;34.08;;;;;;;4.37;100.00;99217.25;4971334;28;20050;-72
2020/12/07 01:06:58;;;;;;;64.50;31.67;;;;;;;4.29;100.00;99214.22;4973945;28;20174;-72
2020/12/07 01:09:24;;;;;;;67.88;33.05;;;;;;;4.30;100.00;99216.78;4969512;28;20552;-69
2020/12/07 01:11:55;;;;;;;66.85;32.83;;;;;;;4.26;100.00;99217.06;4965811;28;20042;-72
2020/12/07 01:14:21;;;;;;;70.40;35.47;;;;;;;4.27;100.00;99211.63;4967181;28;20077;-70
2020/12/07 01:16:50;;;;;;;68.28;33.58;;;;;;;4.30;100.00;99210.59;4971391;28;20372;-72
2020/12/07 01:19:16;;;;;;;69.50;34.38;;;;;;;4.31;100.00;99196.38;4962516;28;20396;-71
2020/12/07 01:21:41;;;;;;;65.60;34.92;;;;;;;4.33;100.00;99195.31;4964706;28;20034;-72
2020/12/07 01:24:09;;;;;;;68.80;34.53;;;;;;;4.39;100.00;99210.00;4974307;28;20544;-71
2020/12/07 01:26:34;;;;;;;70.38;33.83;;;;;;;4.24;100.00;99206.53;4969687;28;20069;-72
2020/12/07 01:29:03;;;;;;;72.70;36.05;;;;;;;4.25;100.00;99207.38;4958902;28;20046;-71
2020/12/07 01:31:28;;;;;;;77.07;36.22;;;;;;;4.28;100.00;99228.44;4965380;28;20038;-72
2020/12/07 01:33:54;;;;;;;75.97;35.22;;;;;;;4.18;100.00;99219.34;4969348;28;20034;-72
2020/12/07 01:36:20;;;;;;;72.00;34.38;;;;;;;4.31;100.00;99221.13;4971633;28;20034;-72
2020/12/07 01:38:46;;;;;;;77.18;38.33;;;;;;;4.33;100.00;99216.56;4969469;28;20456;-72
2020/12/07 01:41:12;;;;;;;77.53;37.92;;;;;;;4.33;100.00;99208.59;4985724;28;20032;-71
2020/12/07 01:43:38;;;;;;;80.05;35.92;;;;;;;4.31;100.00;99212.31;4954406;28;20031;-72
2020/12/07 01:46:07;;;;;;;81.38;38.05;;;;;;;4.36;100.00;99204.91;4970843;28;20156;-72
2020/12/07 01:48:34;;;;;;;79.05;37.35;;;;;;;4.30;100.00;99205.28;4956170;28;20050;-70
2020/12/07 01:51:05;;;;;;;78.05;37.22;;;;;;;4.30;100.00;99200.84;4966594;28;20033;-72
2020/12/07 01:53:32;;;;;;;76.43;35.75;;;;;;;4.29;100.00;99192.97;4967321;28;20063;-71
2020/12/07 01:55:58;;;;;;;79.25;37.10;;;;;;;4.24;100.00;99195.06;4966256;28;20133;-72
2020/12/07 01:58:25;;;;;;;76.15;37.30;;;;;;;4.31;100.00;99193.72;4965796;28;20125;-72
2020/12/07 02:00:50;;;;;;;82.80;40.00;;;;;;;4.24;100.00;99201.22;4968130;28;20133;-72
2020/12/07 02:03:16;;;;;;;73.35;37.97;;;;;;;4.32;100.00;99198.09;4968597;28;20050;-72
2020/12/07 02:05:42;;;;;;;76.72;36.88;;;;;;;4.27;100.00;99189.53;4969212;28;20042;-72
2020/12/07 02:08:13;;;;;;;88.13;40.67;;;;;;;4.21;100.00;99195.22;4968798;28;20081;-71
2020/12/07 02:10:45;;;;;;;80.40;39.50;;;;;;;4.25;100.00;99186.16;4952460;28;20039;-72
2020/12/07 02:13:13;;;;;;;83.30;39.92;;;;;;;4.32;100.00;99187.47;4977972;28;20050;-72
2020/12/07 02:15:41;;;;;;;84.63;40.90;;;;;;;4.22;100.00;99173.03;4950312;28;20058;-71
2020/12/07 02:18:08;;;;;;;82.88;39.53;;;;;;;4.27;100.00;99173.59;4987167;28;20409;-71
2020/12/07 02:20:35;;;;;;;80.15;40.60;;;;;;;4.21;100.00;99160.72;4966549;28;20026;-70
2020/12/07 02:23:03;;;;;;;80.60;40.33;;;;;;;4.29;100.00;99161.09;4968382;28;20054;-70
2020/12/07 02:25:47;;;;;;;79.40;38.30;;;;;;;4.21;100.00;99163.38;4962608;28;20077;-72
2020/12/07 02:28:13;;;;;;;85.68;40.90;;;;;;;4.20;100.00;99166.97;4967720;28;20102;-69
2020/12/07 02:30:38;;;;;;;75.60;38.30;;;;;;;4.21;100.00;99163.38;4965069;28;20035;-72
2020/12/07 02:33:04;;;;;;;89.68;41.72;;;;;;;4.23;100.00;99164.13;4969566;28;20738;-72
2020/12/07 02:35:31;;;;;;;81.15;41.10;;;;;;;4.27;100.00;99163.84;4982443;28;20517;-72
2020/12/07 02:37:57;;;;;;;81.82;40.92;;;;;;;4.22;100.00;99157.13;4966846;28;20066;-71
2020/12/07 02:40:25;;;;;;;79.68;41.75;;;;;;;4.25;100.00;99159.59;4953729;28;20106;-72
2020/12/07 02:42:55;;;;;;;83.35;42.05;;;;;;;4.15;100.00;99158.44;4964898;28;20035;-72
2020/12/07 02:45:25;;;;;;;85.65;41.80;;;;;;;4.15;100.00;99156.66;4988600;28;20046;-72
2020/12/07 02:48:07;;;;;;;84.93;41.03;;;;;;;4.20;100.00;99157.19;4966668;28;20413;-72
2020/12/07 02:50:35;;;;;;;83.72;41.30;;;;;;;4.15;100.00;99148.69;4966563;28;20031;-72
2020/12/07 02:53:04;;;;;;;88.38;42.15;;;;;;;4.19;100.00;99146.72;4962793;28;20092;-71
2020/12/07 02:55:31;;;;;;;85.10;41.42;;;;;;;4.16;100.00;99147.75;4984027;28;20039;-72
2020/12/07 02:57:56;;;;;;;93.90;43.50;;;;;;;4.20;100.00;99140.41;4967088;28;20093;-72
2020/12/07 03:00:27;;;;;;;92.15;43.17;;;;;;;4.12;100.00;99142.72;4969953;28;20038;-72
2020/12/07 03:02:53;;;;;;;92.50;43.38;;;;;;;4.17;100.00;99145.94;4950835;28;20031;-72
2020/12/07 03:05:24;;;;;;;100.07;44.78;;;;;;;4.10;100.00;99140.16;4966502;28;20030;-72
2020/12/07 03:07:51;;;;;;;94.68;44.33;;;;;;;4.10;100.00;99134.84;4965482;28;20579;-72
2020/12/07 03:10:18;;;;;;;98.75;44.95;;;;;;;4.11;100.00;99130.41;4967368;28;20074;-72
2020/12/07 03:12:46;;;;;;;101.93;45.88;;;;;;;4.08;100.00;99142.03;4966959;28;20026;-72
2020/12/07 03:15:15;;;;;;;98.93;43.85;;;;;;;4.07;100.00;99146.50;4963571;28;20372;-72
2020/12/07 03:17:43;;;;;;;99.82;45.45;;;;;;;4.18;100.00;99147.66;4972373;28;20045;-71
2020/12/07 03:20:10;;;;;;;104.95;46.22;;;;;;;4.11;100.00;99156.94;4967016;28;20057;-72
2020/12/07 03:22:36;;;;;;;99.65;44.63;;;;;;;4.10;100.00;99155.22;4963085;28;20408;-71
2020/12/07 03:25:03;;;;;;;98.82;43.75;;;;;;;3.97;100.00;99153.34;4979767;28;20451;-72
2020/12/07 03:27:31;;;;;;;100.45;44.40;;;;;;;3.98;100.00;99162.16;4964693;28;20246;-72
2020/12/07 03:29:57;;;;;;;99.95;44.45;;;;;;;4.09;100.00;99162.34;4965067;28;20098;-72
2020/12/07 03:32:25;;;;;;;106.25;45.30;;;;;;;3.94;100.00;99160.66;4966414;28;20023;-72
2020/12/07 03:34:50;;;;;;;98.40;43.40;;;;;;;4.08;100.00;99166.78;4970250;28;20045;-72
2020/12/07 03:37:16;;;;;;;92.68;42.30;;;;;;;4.08;100.00;99163.28;4966229;28;20034;-72
2020/12/07 03:39:50;;;;;;;99.90;43.97;;;;;;;4.12;100.00;99163.97;4968905;28;20394;-72
2020/12/07 03:42:16;;;;;;;87.43;41.70;;;;;;;4.18;100.00;99160.94;4982989;28;20041;-71
2020/12/07 03:44:43;;;;;;;91.70;42.65;;;;;;;4.17;100.00;99156.56;4952839;28;20053;-72
2020/12/07 03:47:11;;;;;;;97.47;42.60;;;;;;;4.02;100.00;99168.97;4968032;28;20097;-72
2020/12/07 03:49:37;;;;;;;91.25;43.33;;;;;;;4.12;100.00;99166.63;4949864;28;20034;-71
2020/12/07 03:52:04;;;;;;;91.80;43.17;;;;;;;4.16;100.00;99160.16;4963040;28;20036;-72
2020/12/07 03:54:30;;;;;;;97.50;45.05;;;;;;;4.02;100.00;99161.00;4968329;28;20049;-72
2020/12/07 03:56:55;;;;;;;105.57;46.90;;;;;;;4.14;100.00;99162.03;4966148;28;20046;-72
2020/12/07 03:59:21;;;;;;;137.20;58.83;;;;;;;4.12;100.00;99151.53;4962070;28;20109;-71
2020/12/07 04:01:48;;;;;;;112.03;49.55;;;;;;;4.06;100.00;99144.81;4966810;28;20516;-72
2020/12/07 04:04:17;;;;;;;117.15;51.65;;;;;;;4.12;100.00;99153.34;4970426;28;20030;-72
2020/12/07 04:06:44;;;;;;;116.88;53.45;;;;;;;4.07;100.00;99148.34;4987579;28;20517;-72
2020/12/07 04:09:15;;;;;;;109.43;52.58;;;;;;;4.12;100.00;99142.72;4971187;28;20536;-72
2020/12/07 04:11:40;;;;;;;100.32;49.90;;;;;;;4.02;100.00;99153.06;4974596;28;20047;-70
2020/12/07 04:14:05;;;;;;;98.20;48.30;;;;;;;3.95;100.00;99149.91;4966184;28;20038;-72
2020/12/07 04:16:31;;;;;;;110.53;49.92;;;;;;;4.06;100.00;99158.09;4953891;28;20529;-72
2020/12/07 04:18:56;;;;;;;118.93;51.40;;;;;;;4.07;100.00;99165.09;4962355;28;20039;-71
2020/12/07 04:21:22;;;;;;;129.05;54.42;;;;;;;4.11;100.00;99151.63;4972280;28;20445;-70
2020/12/07 04:23:47;;;;;;;221.80;74.57;;;;;;;4.04;100.00;99149.38;4966103;28;20066;-72
2020/12/07 04:26:13;;;;;;;237.85;92.63;;;;;;;4.11;100.00;99146.31;4970364;28;20484;-71
2020/12/07 04:28:38;;;;;;;215.52;88.15;;;;;;;4.04;100.00;99141.41;4968312;28;20169;-71
2020/12/07 04:31:04;;;;;;;132.10;52.60;;;;;;;4.08;100.00;99148.22;4970503;28;20066;-72
2020/12/07 04:33:29;;;;;;;225.90;69.43;;;;;;;4.11;100.00;99148.97;4963872;28;20045;-72
2020/12/07 04:35:54;;;;;;;138.00;55.60;;;;;;;3.99;100.00;99148.81;4966000;28;20071;-71
2020/12/07 04:38:20;;;;;;;177.10;64.55;;;;;;;4.02;100.00;99153.91;4969900;28;20117;-72
2020/12/07 04:40:46;;;;;;;259.02;82.60;;;;;;;4.04;100.00;99161.78;4954219;28;20169;-72
2020/12/07 04:43:13;;;;;;;235.30;90.20;;;;;;;4.04;100.00;99154.66;4974403;28;20054;-72
2020/12/07 04:45:39;;;;;;;135.05;66.93;;;;;;;4.07;100.00;99149.16;4966264;28;20122;-69
2020/12/07 04:48:05;;;;;;;108.13;56.22;;;;;;;4.05;100.00;99143.09;4974589;28;20177;-72
2020/12/07 04:50:32;;;;;;;95.47;47.33;;;;;;;4.07;100.00;99135.06;4965495;28;20039;-71
2020/12/07 04:52:58;;;;;;;93.35;47.72;;;;;;;3.99;100.00;99130.22;4970059;28;20486;-72
2020/12/07 04:55:25;;;;;;;93.25;43.72;;;;;;;4.04;100.00;99120.16;4970276;28;20037;-71
2020/12/07 04:57:50;;;;;;;88.60;42.63;;;;;;;4.03;100.00;99129.06;4969516;28;20545;-72
2020/12/07 05:00:21;;;;;;;90.50;43.65;;;;;;;4.02;100.00;99126.50;4969604;28;20031;-72
2020/12/07 05:02:46;;;;;;;82.30;39.88;;;;;;;3.95;100.00;99141.97;4969736;28;20034;-72
2020/12/07 05:05:12;;;;;;;84.25;41.67;;;;;;;3.90;100.00;99146.72;4971372;28;20077;-70
2020/12/07 05:07:37;;;;;;;83.43;40.22;;;;;;;3.97;100.00;99156.00;4962950;28;20091;-72
2020/12/07 05:10:12;;;;;;;92.82;42.47;;;;;;;3.91;100.00;99156.38;4979225;28;20105;-72
2020/12/07 05:12:43;;;;;;;85.90;41.95;;;;;;;3.96;100.00;99158.75;4954171;28;20544;-72
2020/12/07 05:15:12;;;;;;;81.95;40.42;;;;;;;4.02;100.00;99169.84;4973651;28;20030;-71
2020/12/07 05:17:38;;;;;;;95.35;44.70;;;;;;;4.02;100.00;99166.31;4961263;28;20687;-72
2020/12/07 05:20:05;;;;;;;94.63;44.10;;;;;;;3.96;100.00;99170.22;4966657;28;20034;-71
2020/12/07 05:22:31;;;;;;;98.57;48.97;;;;;;;3.95;100.00;99175.66;4967039;28;20030;-72
2020/12/07 05:24:56;;;;;;;103.05;48.60;;;;;;;3.92;100.00;99168.72;4970275;28;20089;-71
2020/12/07 05:27:27;;;;;;;99.22;46.50;;;;;;;3.97;100.00;99171.94;4967909;28;20073;-72
2020/12/07 05:32:30;;;;;;;101.82;45.67;;;;;;;3.98;100.00;99160.38;4970779;28;20124;-72
2020/12/07 05:34:58;;;;;;;108.10;46.03;;;;;;;3.94;100.00;99155.34;4963953;28;20038;-72
2020/12/07 05:37:23;;;;;;;119.82;55.05;;;;;;;3.94;100.00;99155.34;4964285;28;20070;-72
2020/12/07 05:39:49;;;;;;;114.07;55.53;;;;;;;3.91;100.00;99155.53;4961250;28;20073;-72
2020/12/07 05:42:17;;;;;;;114.43;55.13;;;;;;;3.93;100.00;99154.50;4967917;28;20046;-72
2020/12/07 05:44:48;;;;;;;104.40;49.03;;;;;;;4.02;100.00;99159.22;4951759;28;20046;-72
2020/12/07 05:47:17;;;;;;;93.85;46.10;;;;;;;3.91;100.00;99156.38;4965001;28;20124;-70
2020/12/07 05:49:48;;;;;;;103.13;48.00;;;;;;;4.02;100.00;99163.66;4966545;28;20094;-72
2020/12/07 05:52:29;;;;;;;101.05;48.00;;;;;;;3.93;100.00;99159.81;4971083;28;20062;-72
2020/12/07 05:54:56;;;;;;;106.45;49.13;;;;;;;3.97;100.00;99156.00;4955366;28;20030;-72
2020/12/07 05:57:27;;;;;;;115.72;54.22;;;;;;;3.86;100.00;99169.09;4965227;28;20034;-72
2020/12/07 05:59:56;;;;;;;120.28;52.60;;;;;;;3.90;100.00;99167.94;4969177;28;20082;-69
2020/12/07 06:02:22;;;;;;;103.28;49.47;;;;;;;3.94;100.00;99169.47;4965862;28;20038;-72
2020/12/07 06:04:47;;;;;;;103.22;48.95;;;;;;;3.89;100.00;99179.50;4965177;28;20035;-70
2020/12/07 06:07:15;;;;;;;108.00;49.50;;;;;;;3.87;100.00;99176.09;4948876;28;20109;-72
2020/12/07 06:09:43;;;;;;;113.95;53.55;;;;;;;3.94;100.00;99177.44;4955323;28;20407;-72
2020/12/07 06:12:13;;;;;;;102.80;48.70;;;;;;;3.92;100.00;99174.03;4968905;28;20097;-74
2020/12/07 06:14:41;;;;;;;97.47;45.35;;;;;;;3.97;100.00;99166.63;4962737;28;20035;-71
2020/12/07 06:17:10;;;;;;;96.57;42.45;;;;;;;3.90;100.00;99167.94;4959826;28;20468;-72
2020/12/07 06:19:38;;;;;;;95.43;42.47;;;;;;;3.79;100.00;99165.09;4963757;28;20055;-72
2020/12/07 06:22:06;;;;;;;102.80;42.85;;;;;;;3.88;100.00;99167.22;4970817;28;20037;-72
2020/12/07 06:24:38;;;;;;;100.15;45.25;;;;;;;3.77;100.00;99172.28;4968504;28;20043;-71
2020/12/07 06:27:07;;;;;;;106.18;45.22;;;;;;;3.85;100.00;99166.53;4967668;28;20460;-72
2020/12/07 06:29:33;;;;;;;98.85;43.20;;;;;;;3.74;100.00;99175.16;4981532;28;20478;-72
2020/12/07 06:31:59;;;;;;;106.20;45.63;;;;;;;3.78;100.00;99168.69;4970877;28;20031;-72
2020/12/07 06:34:51;;;;;;;93.35;43.65;;;;;;;3.76;100.00;99172.41;4966146;28;20066;-72
2020/12/07 06:37:16;;;;;;;96.15;43.67;;;;;;;3.83;100.00;99173.72;4959398;28;20074;-72
2020/12/07 06:39:46;;;;;;;91.60;42.92;;;;;;;3.84;100.00;99181.59;4952705;28;20069;-72
2020/12/07 06:42:13;;;;;;;102.30;44.40;;;;;;;3.77;100.00;99177.59;4972996;28;20035;-71
2020/12/07 06:44:44;;;;;;;105.10;45.95;;;;;;;3.72;100.00;99182.34;4964471;28;20055;-69
2020/12/07 06:47:23;;;;;;;100.85;44.38;;;;;;;3.76;100.00;99191.84;4959399;28;20050;-72
2020/12/07 06:50:02;;;;;;;90.82;42.10;;;;;;;3.88;100.00;99184.94;4968284;28;20397;-72
2020/12/07 06:52:35;;;;;;;84.50;38.72;;;;;;;3.78;100.00;99197.88;4958613;28;20035;-70
2020/12/07 06:55:10;;;;;;;101.95;44.80;;;;;;;3.76;100.00;99194.50;4966668;28;20070;-69
2020/12/07 06:57:42;;;;;;;98.78;46.05;;;;;;;3.67;100.00;99192.38;4948974;28;20038;-72
2020/12/07 07:00:11;;;;;;;99.43;43.13;;;;;;;3.73;100.00;99194.66;4957815;28;20129;-70
2020/12/07 07:02:41;;;;;;;104.47;45.80;;;;;;;3.78;100.00;99195.22;4968433;28;20121;-72
2020/12/07 07:05:07;;;;;;;97.20;43.33;;;;;;;3.82;100.00;99198.56;4966901;28;20035;-72
2020/12/07 07:07:33;;;;;;;97.20;40.97;;;;;;;3.65;100.00;99202.22;4964514;28;20034;-71
2020/12/07 07:09:59;;;;;;;86.40;39.58;;;;;;;3.77;100.00;99196.16;4968818;28;20026;-72
2020/12/07 07:12:25;;;;;;;81.93;39.17;;;;;;;3.69;100.00;99209.06;4969742;28;20034;-72
2020/12/07 07:14:53;;;;;;;85.93;40.97;;;;;;;3.74;100.00;99209.66;4962803;28;20774;-72
2020/12/07 07:17:20;;;;;;;90.20;40.28;;;;;;;3.74;100.00;99217.59;4973134;28;20114;-72
2020/12/07 07:19:45;;;;;;;89.75;40.65;;;;;;;3.71;100.00;99220.44;4969040;28;20067;-71
2020/12/07 07:22:11;;;;;;;89.82;38.45;;;;;;;3.79;100.00;99214.66;4972176;28;20076;-72
2020/12/07 07:24:45;;;;;;;89.55;39.00;;;;;;;3.83;100.00;99210.88;4962786;28;20439;-71
2020/12/07 07:29:55;;;;;;;91.80;39.25;;;;;;;3.63;100.00;99217.41;4964978;28;20098;-72
2020/12/07 07:32:22;;;;;;;80.78;36.95;;;;;;;3.59;100.00;99223.81;4986735;28;20145;-72
2020/12/07 07:34:48;;;;;;;92.75;40.13;;;;;;;3.60;100.00;99225.53;4980245;28;20027;-72
2020/12/07 07:37:15;;;;;;;89.38;39.42;;;;;;;3.64;100.00;99227.91;4973751;28;20106;-72
2020/12/07 07:39:41;;;;;;;82.43;37.80;;;;;;;3.68;100.00;99228.59;4964339;28;20461;-72
2020/12/07 07:42:12;;;;;;;85.65;38.05;;;;;;;3.69;100.00;99235.59;4985524;28;20482;-72
2020/12/07 07:44:45;;;;;;;93.88;38.85;;;;;;;3.75;100.00;99235.25;4979265;28;20035;-71
2020/12/07 07:47:19;;;;;;;88.28;38.67;;;;;;;3.69;100.00;99234.75;4968141;28;20105;-71
2020/12/07 08:01:09;;;;;;;90.40;38.95;;;;;;;3.65;100.00;99256.13;4942980;28;20046;-71
2020/12/07 08:16:57;;;;;;;98.22;42.17;;;;;;;3.73;100.00;99250.38;4971002;28;20032;-72
2020/12/07 08:19:24;;;;;;;96.88;43.15;;;;;;;3.70;100.00;99252.38;4970603;28;20038;-72
2020/12/07 08:21:49;;;;;;;99.00;41.75;;;;;;;3.73;100.00;99261.00;4984919;28;20062;-72
2020/12/07 08:24:15;;;;;;;95.88;41.83;;;;;;;3.80;100.00;99267.66;4969023;28;20073;-72
2020/12/07 08:26:44;;;;;;;97.72;41.90;;;;;;;3.71;100.00;99276.16;4970386;28;20108;-71
2020/12/07 08:29:10;;;;;;;102.32;43.72;;;;;;;3.70;100.00;99282.44;4962540;28;20046;-72
2020/12/07 08:31:37;;;;;;;97.05;42.67;;;;;;;3.79;100.00;99276.56;4967295;28;20460;-72
2020/12/07 08:34:11;;;;;;;97.80;41.83;;;;;;;3.78;100.00;99287.25;4967924;28;20035;-71
2020/12/07 08:36:38;;;;;;;97.18;42.72;;;;;;;3.75;100.00;99290.97;4958430;28;20071;-72
2020/12/07 08:39:05;;;;;;;94.90;41.83;;;;;;;3.78;100.00;99281.94;4969408;28;20049;-71
2020/12/07 08:41:32;;;;;;;91.40;40.38;;;;;;;3.81;100.00;99293.25;4971422;28;20109;-72
2020/12/07 08:44:01;;;;;;;98.00;42.55;;;;;;;3.81;100.00;99281.78;4967579;28;20035;-71
2020/12/07 08:46:28;;;;;;;97.55;41.78;;;;;;;3.80;100.00;99296.84;4968874;28;20088;-72
2020/12/07 08:48:55;;;;;;;93.55;41.75;;;;;;;3.83;100.00;99291.34;4964388;28;20046;-72
2020/12/07 08:51:23;;;;;;;93.78;40.65;;;;;;;3.76;100.00;99297.97;4968633;28;20081;-72
2020/12/07 08:53:49;;;;;;;90.03;41.10;;;;;;;3.81;100.00;99306.53;4971957;28;20086;-71
2020/12/07 08:56:15;;;;;;;92.13;40.10;;;;;;;3.89;100.00;99309.56;4970347;28;20061;-72
2020/12/07 08:58:40;;;;;;;92.45;40.33;;;;;;;3.80;100.00;99311.91;4968569;28;20042;-72
2020/12/07 09:01:08;;;;;;;92.72;40.95;;;;;;;3.82;100.00;99307.38;4983271;28;20134;-72
2020/12/07 09:03:35;;;;;;;97.43;41.60;;;;;;;3.77;100.00;99318.25;4967127;28;20043;-70
2020/12/07 09:06:05;;;;;;;87.20;40.15;;;;;;;3.91;100.00;99315.63;4966235;28;20053;-72
2020/12/07 09:08:33;;;;;;;82.22;39.78;;;;;;;3.93;100.00;99312.91;4966238;28;20122;-71
2020/12/07 09:11:02;;;;;;;91.50;39.90;;;;;;;3.81;100.00;99303.88;4966891;28;20433;-72
2020/12/07 09:13:27;;;;;;;92.95;39.67;;;;;;;3.78;100.00;99314.66;4962748;28;20038;-69
2020/12/07 09:15:52;;;;;;;90.88;40.67;;;;;;;3.89;100.00;99317.50;4967799;28;20058;-72
2020/12/07 09:18:19;;;;;;;86.88;40.17;;;;;;;3.86;100.00;99315.06;4963991;28;20047;-71
2020/12/07 09:20:45;;;;;;;92.07;40.05;;;;;;;3.90;100.00;99316.56;4963196;28;20825;-71
2020/12/07 09:23:10;;;;;;;88.20;40.30;;;;;;;3.97;100.00;99315.25;4984487;28;20038;-72
2020/12/07 09:25:36;;;;;;;93.35;40.33;;;;;;;3.87;100.00;99324.72;4964640;28;20392;-72
2020/12/07 09:28:01;;;;;;;85.68;39.35;;;;;;;4.01;100.00;99329.22;4956829;28;20150;-72
2020/12/07 09:30:26;;;;;;;90.28;39.95;;;;;;;3.97;100.00;99333.84;4971685;28;20039;-69
2020/12/07 09:32:52;;;;;;;84.22;37.92;;;;;;;3.83;100.00;99325.84;4964274;28;20097;-71
2020/12/07 09:35:18;;;;;;;92.38;39.10;;;;;;;3.99;100.00;99331.97;4971302;28;20058;-71
2020/12/07 09:37:44;;;;;;;82.30;38.83;;;;;;;3.92;100.00;99332.41;4968733;28;20033;-71
2020/12/07 09:40:11;;;;;;;88.03;39.90;;;;;;;3.88;100.00;99331.75;4967893;28;20042;-72
2020/12/07 09:42:38;;;;;;;91.57;38.90;;;;;;;3.84;100.00;99343.47;4968951;28;20034;-71
2020/12/07 09:45:04;;;;;;;82.05;37.40;;;;;;;3.93;100.00;99337.63;4974513;28;20062;-71
2020/12/07 09:47:29;;;;;;;88.47;38.08;;;;;;;4.05;100.00;99334.25;4941595;28;20417;-71
2020/12/07 09:49:55;;;;;;;88.72;40.50;;;;;;;4.10;100.00;99346.38;4974079;28;20039;-72
2020/12/07 09:52:20;;;;;;;83.50;37.53;;;;;;;3.95;100.00;99354.31;4968265;28;20039;-72
2020/12/07 09:54:47;;;;;;;87.20;38.45;;;;;;;4.14;100.00;99350.56;4969732;28;20165;-70
2020/12/07 09:57:13;;;;;;;83.30;36.83;;;;;;;4.04;100.00;99353.78;4969071;28;20453;-71
2020/12/07 09:59:38;;;;;;;81.30;38.38;;;;;;;4.03;100.00;99346.75;4972726;28;20053;-71
2020/12/07 10:02:04;;;;;;;90.85;38.42;;;;;;;4.04;100.00;99348.47;4973251;28;20033;-71
2020/12/07 10:04:29;;;;;;;81.47;38.78;;;;;;;3.98;100.00;99343.53;4985236;28;20627;-71
2020/12/07 10:06:55;;;;;;;86.35;37.20;;;;;;;4.06;100.00;99351.03;4969226;28;20023;-71
2020/12/07 10:09:21;;;;;;;82.43;36.65;;;;;;;4.12;100.00;99350.69;4967987;28;20123;-71
2020/12/07 10:11:46;;;;;;;77.90;34.95;;;;;;;4.19;100.00;99349.38;4971368;28;20041;-72
2020/12/07 10:14:12;;;;;;;82.63;36.80;;;;;;;4.14;100.00;99355.88;4970921;28;20043;-71
2020/12/07 10:16:41;;;;;;;83.88;36.28;;;;;;;4.19;100.00;99351.16;4983314;28;20030;-72
2020/12/07 10:19:06;;;;;;;84.13;35.88;;;;;;;4.27;100.00;99352.41;4964895;28;20050;-72
2020/12/07 10:21:33;;;;;;;73.65;33.65;;;;;;;4.21;100.00;99359.88;4964232;28;20035;-71
2020/12/07 10:23:59;;;;;;;75.32;34.35;;;;;;;4.18;100.00;99349.44;4963511;28;20030;-73
2020/12/07 10:26:25;;;;;;;80.20;35.22;;;;;;;4.14;100.00;99359.38;4965183;28;20392;-71
2020/12/07 10:28:52;;;;;;;76.93;34.22;;;;;;;4.32;100.00;99363.59;4964996;28;20039;-72
2020/12/07 10:31:21;;;;;;;84.97;33.90;;;;;;;4.22;100.00;99361.59;4966292;28;20580;-70
2020/12/07 10:33:47;;;;;;;80.53;35.45;;;;;;;4.21;100.00;99362.53;4963944;28;20680;-72
2020/12/07 10:36:13;;;;;;;77.15;34.20;;;;;;;4.21;100.00;99367.84;4962797;28;20504;-71
2020/12/07 10:38:39;;;;;;;80.82;34.53;;;;;;;4.27;100.00;99370.13;4962401;28;20035;-72
2020/12/07 10:41:04;;;;;;;78.72;33.60;;;;;;;4.22;100.00;99372.22;4961295;28;20038;-71
2020/12/07 10:43:30;;;;;;;80.15;34.40;;;;;;;4.24;100.00;99365.03;4958138;28;20035;-69
2020/12/07 10:45:56;;;;;;;82.78;36.58;;;;;;;4.40;100.00;99369.31;4961457;28;20066;-72
2020/12/07 10:48:21;;;;;;;86.80;35.60;;;;;;;4.54;100.00;99370.28;4981976;28;20042;-71
2020/12/07 10:50:47;;;;;;;83.50;34.67;;;;;;;4.47;100.00;99367.13;4967647;28;20045;-71
2020/12/07 10:53:12;;;;;;;80.78;34.45;;;;;;;4.40;100.00;99368.44;4965867;28;20096;-71
2020/12/07 10:55:37;;;;;;;82.07;34.28;;;;;;;4.36;100.00;99364.28;4982857;28;20405;-71
2020/12/07 10:58:03;;;;;;;83.22;33.25;;;;;;;4.49;100.00;99370.56;4968165;28;20048;-70
2020/12/07 11:00:28;;;;;;;79.72;32.00;;;;;;;4.59;100.00;99374.34;4962494;28;20497;-72
2020/12/07 11:02:53;;;;;;;77.78;32.78;;;;;;;4.43;100.00;99371.78;4958007;28;20038;-71
2020/12/07 11:05:19;;;;;;;78.88;32.70;;;;;;;4.64;100.00;99374.91;4965205;28;20512;-71
2020/12/07 11:07:47;;;;;;;81.50;33.25;;;;;;;4.53;100.00;99377.38;4966957;28;20046;-71
2020/12/07 11:10:12;;;;;;;72.95;31.35;;;;;;;4.53;100.00;99382.69;4982731;28;20101;-71
2020/12/07 11:12:39;;;;;;;74.32;32.10;;;;;;;4.55;100.00;99388.78;4963792;28;20030;-71
2020/12/07 11:15:06;;;;;;;75.53;30.60;;;;;;;4.66;100.00;99383.66;4962294;28;20398;-70
2020/12/07 11:17:32;;;;;;;78.22;29.90;;;;;;;4.57;100.00;99389.53;4963879;28;20039;-71
2020/12/07 11:19:57;;;;;;;75.65;31.90;;;;;;;4.50;100.00;99385.56;4948347;28;20436;-70
2020/12/07 11:22:22;;;;;;;71.55;31.50;;;;;;;4.69;100.00;99386.13;4963575;28;20030;-70
2020/12/07 11:24:48;;;;;;;75.13;31.75;;;;;;;4.56;100.00;99389.63;4965344;28;20039;-72
2020/12/07 11:27:13;;;;;;;73.20;31.05;;;;;;;4.56;100.00;99395.81;4966123;28;20035;-70
2020/12/07 11:29:39;;;;;;;88.53;33.58;;;;;;;4.57;100.00;99389.53;4964075;28;20435;-72
2020/12/07 11:32:04;;;;;;;73.55;29.38;;;;;;;4.59;100.00;99389.44;4968491;28;20039;-72
2020/12/07 11:34:29;;;;;;;70.50;29.98;;;;;;;4.63;100.00;99388.31;4967868;28;20114;-70
2020/12/07 11:36:55;;;;;;;73.78;31.15;;;;;;;4.58;100.00;99385.06;4965352;28;20047;-72
2020/12/07 11:39:33;;;;;;;77.97;31.80;;;;;;;4.59;100.00;99386.78;4963527;28;20031;-71
2020/12/07 11:45:03;;;;;;;71.32;30.40;;;;;;;4.52;100.00;99381.00;4948529;28;20142;-72
2020/12/07 11:47:28;;;;;;;78.05;31.52;;;;;;;4.62;100.00;99386.59;4946847;28;20118;-72
2020/12/07 11:49:54;;;;;;;76.30;31.77;;;;;;;4.58;100.00;99385.94;4966621;28;20058;-72